• Join FlightAware (Why Join?)
  • Login
  • US Flag 
05:20AM EDT


 

Airport Tracker/Info


-or-


 

Live Flight TrackerFlight Track Log ✈ FFT909 ✈ 15-Jan-2014 ✈ KTTN - KDTW

Flight Track Log - Related Links

Times and Time Zones

All times are in EST time to prevent confusion due to time zone crossing. See the FFT909 flight status page for this flight to view local times or setup timezone preferences in your user account.

Time Position Orientation Groundspeed Altitude Reporting Facility
EST Latitude Longitude Course Direction KTS MPH feet Rate Location/Type
01:19PM 40.2667 -74.8333 360° North 123 142 900  Level Philadelphia TRACON
01:19PM 40.2667 -74.8333 270° West 133 153 1,600 2,100 Climbing Philadelphia TRACON
01:20PM 40.2667 -74.9167 270° West 208 239 3,700 2,460 Climbing Philadelphia TRACON
01:21PM 40.2333 -74.9833 237° Southwest 252 290 6,600 2,040 Climbing Philadelphia TRACON
01:22PM 40.2139 -75.0275 240° Southwest 249 287 7,000 480 Climbing New York Center
01:23PM 40.1708 -75.1253 240° Southwest 249 287 7,400 660 Climbing New York Center
01:24PM 40.1369 -75.1939 237° Southwest 254 292 8,400 1,140 Climbing New York Center
01:25PM 40.1072 -75.2625 240° Southwest 254 292 9,700 960 Climbing New York Center
01:26PM 40.0594 -75.3650 239° Southwest 294 338 10,400 1,080 Climbing New York Center
01:27PM 40.0117 -75.4650 238° Southwest 321 369 11,900 780 Climbing New York Center
01:28PM 39.9719 -75.5761 245° Southwest 337 388 12,000 540 Climbing New York Center
01:29PM 39.9728 -75.7033 271° West 352 405 13,000 2,100 Climbing New York Center
01:30PM 39.9778 -75.8339 273° West 362 417 16,200 3,120 Climbing New York Center
01:31PM 39.9892 -75.9539 277° West 352 405 19,300 2,700 Climbing New York Center
01:32PM 39.9961 -76.0792 274° West 352 405 21,600 2,100 Climbing New York Center
01:33PM 40.0050 -76.2072 275° West 352 405 23,500 1,740 Climbing New York Center
01:34PM 40.0094 -76.3322 273° West 368 423 25,100 1,560 Climbing New York Center
01:35PM 40.0175 -76.4711 274° West 374 430 26,700 1,560 Climbing New York Center
01:36PM 40.0253 -76.6072 274° West 379 436 28,300 1,560 Climbing New York Center
01:37PM 40.0353 -76.7439 276° West 384 442 29,900 1,560 Climbing New York Center
01:38PM 40.0428 -76.8828 274° West 384 442 31,500 1,560 Climbing New York Center
01:39PM 40.0483 -77.0161 273° West 384 442 33,100 1,560 Climbing New York Center
01:40PM 40.0556 -77.1525 274° West 384 442 34,700 1,080 Climbing New York Center
01:41PM 40.0669 -77.3628 274° West 366 421 36,000 480 Climbing Cleveland Center
01:42PM 40.0753 -77.5250 274° West 373 429 36,000  Level Cleveland Center
01:43PM 40.0814 -77.6578 273° West 371 427 36,000  Level Cleveland Center
01:44PM 40.0881 -77.7911 274° West 370 426 36,000  Level Cleveland Center
01:45PM 40.0942 -77.9197 274° West 368 423 36,000  Level Cleveland Center
01:46PM 40.1211 -78.0539 285° West 384 442 36,000  Level Cleveland Center
01:47PM 40.1503 -78.1861 286° West 383 441 36,000  Level Cleveland Center
01:48PM 40.1844 -78.3456 286° West 381 438 36,000  Level Cleveland Center
01:49PM 40.2147 -78.4839 286° West 391 450 36,000  Level Cleveland Center
01:50PM 40.2439 -78.6236 285° West 398 458 36,100  Climbing Cleveland Center
01:51PM 40.2733 -78.7631 286° West 399 459 36,000 -60 Descending Cleveland Center
01:53PM 40.3031 -78.9022 286° West 398 458 36,000  Level Cleveland Center
01:54PM 40.3342 -79.0436 286° West 409 471 36,000  Level Cleveland Center
01:55PM 40.3628 -79.1833 285° West 401 461 36,000  Level Cleveland Center
01:56PM 40.3978 -79.3533 285° West 405 466 36,000  Level Cleveland Center
01:57PM 40.4281 -79.5000 285° West 423 487 36,000 -300 Level Cleveland Center
01:58PM 40.4564 -79.6414 285° West 409 471 35,500 -600 Descending Cleveland Center
01:59PM 40.4872 -79.7853 286° West 415 478 34,800 -960 Descending Cleveland Center
02:00PM 40.5172 -79.9283 285° West 408 470 33,600 -1,320 Descending Cleveland Center
02:01PM 40.5478 -80.0697 286° West 407 468 32,100 -1,500 Descending Cleveland Center
02:02PM 40.5739 -80.2136 283° West 408 470 30,600 -1,080 Descending Cleveland Center
02:03PM 40.6058 -80.3828 284° West 417 480 30,000 -300 Descending Cleveland Center
02:04PM 40.6339 -80.5319 284° West 416 479 30,000  Level Cleveland Center
02:05PM 40.6633 -80.6800 285° West 415 478 30,000  Level Cleveland Center
02:06PM 40.7136 -80.8233 295° West 426 490 30,000  Level Cleveland Center
02:07PM 40.7819 -80.9617 303° West 442 509 30,000  Level Cleveland Center
02:08PM 40.8506 -81.1000 303° West 446 513 30,000  Level Cleveland Center
02:09PM 40.9292 -81.2644 302° West 449 517 30,000  Level Cleveland Center
02:10PM 40.9972 -81.4039 303° West 447 514 30,000  Level Cleveland Center
02:11PM 41.0656 -81.5453 303° West 450 518 30,000 -240 Level Cleveland Center
02:12PM 41.1342 -81.6864 303° West 448 516 29,600 -720 Descending Cleveland Center
02:13PM 41.2011 -81.8258 303° West 438 504 28,600 -1,680 Descending Cleveland Center
02:14PM 41.2650 -81.9633 302° West 429 494 26,200 -2,400 Descending Cleveland Center
02:15PM 41.3264 -82.0939 302° West 417 480 23,800 -2,280 Descending Cleveland Center
02:16PM 41.3886 -82.2150 304° West 398 458 21,600 -2,040 Descending Cleveland Center
02:17PM 41.4567 -82.3258 309° West 384 442 19,600 -1,920 Descending Cleveland Center
02:18PM 41.5217 -82.4356 308° West 378 435 17,700 -1,920 Descending Cleveland Center
02:19PM 41.5511 -82.4892 306° West 371 427 16,900 -1,680 Descending Cleveland Center
02:19PM 41.5858 -82.5422 311° West 366 421 16,000 -1,620 Descending Cleveland Center
02:20PM 41.6222 -82.6069 307° West 355 409 15,100 -1,860 Descending Cleveland Center
02:20PM 41.6539 -82.6569 310° West 352 405 14,100 -1,680 Descending Cleveland Center
02:21PM 41.6819 -82.7069 307° West 339 390 13,400 -1,680 Descending Cleveland Center
02:21PM 41.7128 -82.7567 310° West 343 395 12,400 -1,380 Descending Cleveland Center
02:22PM 41.7419 -82.8014 311° West 334 384 12,000 -420 Descending Cleveland Center
02:22PM 41.7786 -82.8428 320° Northwest 334 384 12,000  Level Cleveland Center
02:23PM 41.8114 -82.8833 317° Northwest 341 392 12,000  Level Cleveland Center
02:23PM 41.8458 -82.9311 314° West 339 390 12,000  Level Cleveland Center
02:24PM 41.8631 -82.9769 297° West 334 384 12,000  Level Cleveland Center
02:24PM 41.8939 -83.0386 304° West 336 387 12,000  Level Cleveland Center
02:25PM 41.9117 -83.0817 299° West 332 382 12,000  Level Cleveland Center
02:25PM 41.9419 -83.1422 304° West 331 381 12,000  Level Cleveland Center
02:26PM 41.9567 -83.1778 299° West 329 379 12,000  Level Cleveland Center
02:27PM 41.9953 -83.2572 303° West 329 379 12,000  Level Cleveland Center
02:27PM 42.0053 -83.2828 298° West 328 377 12,000  Level Cleveland Center
02:28PM 42.0419 -83.3611 302° West 324 373 12,000  Level Cleveland Center
02:28PM 42.0553 -83.3908 301° West 318 366 12,000  Level Cleveland Center
02:29PM 42.0983 -83.4561 312° West 326 375 12,000  Level Cleveland Center
02:29PM 42.1333 -83.4667 347° North 335 386 12,000 -240 Level Cleveland Center
02:30PM 42.1906 -83.4717 356° North 333 383 11,800 -600 Descending Cleveland Center
02:30PM 42.2144 -83.4725 359° North 320 368 11,500 -1,500 Descending Cleveland Center
02:31PM 42.2889 -83.4583 North 307 353 10,300 -1,260 Descending Cleveland Center
02:31PM 42.3083 -83.4522 13° North 294 338 10,100 -1,500 Descending Cleveland Center
02:32PM 42.3664 -83.4256 19° North 289 333 8,800 -1,800 Descending Cleveland Center
02:32PM 42.3822 -83.4203 14° North 281 323 8,300 -1,680 Descending Cleveland Center
02:33PM 42.4419 -83.3967 16° North 285 328 7,100 -1,500 Descending Cleveland Center
02:33PM 42.4578 -83.3914 14° North 278 320 6,800 -1,980 Descending Cleveland Center
02:34PM 42.4747 -83.3192 72° East 278 320 5,100 -1,980 Descending Cleveland Center
02:34PM 42.4650 -83.2992 123° Southeast 256 295 4,800 -1,080 Descending Cleveland Center
02:35PM 42.4386 -83.2458 124° Southeast 246 283 4,000 -780 Descending Cleveland Center
02:35PM 42.4208 -83.2447 177° South 191 220 4,000  Level Cleveland Center
02:36PM 42.3861 -83.2481 184° South 195 224 4,000  Level Cleveland Center
02:36PM 42.3717 -83.2578 206° Southwest 177 204 4,000 -540 Level Cleveland Center
02:37PM 42.3428 -83.2803 210° Southwest 179 206 3,500 -900 Descending Cleveland Center
02:37PM 42.3339 -83.2864 207° Southwest 176 203 3,200 -1,080 Descending Cleveland Center
02:38PM 42.2997 -83.3122 209° Southwest 178 205 2,400 -900 Descending Cleveland Center
02:38PM 42.2850 -83.3219 206° Southwest 173 199 2,200 -1,020 Descending Cleveland Center
02:39PM 42.2539 -83.3456 209° Southwest 122 140 1,400 -900 Descending Cleveland Center
02:39PM 42.2558 -83.3453 North 153 176 1,400 -480 Level Cleveland Center
02:40PM 42.2303 -83.3647 209° Southwest 137 158 900 -540 Descending Cleveland Center